Time;durP1;ratioP1;P1;durP2;ratioP2;P2;SDS_P1;SDS_P2;PMS_P1;PMS_P2;Temp;Humidity;BMP_temperature;BMP_pressure;BME280_temperature;BME280_humidity;BME280_pressure;Samples;Min_cycle;Max_cycle;Signal;HPM_P1;HPM_P2
2021/12/21 00:01:36;;;;;;;0.60;0.50;;;;;;;7.09;100.00;101205.22;4954414;29;20050;-72
2021/12/21 00:04:05;;;;;;;0.63;0.50;;;;;;;7.10;100.00;101206.97;4953734;29;20118;-71
2021/12/21 00:06:36;;;;;;;2.15;0.85;;;;;;;7.09;100.00;101208.66;4960191;28;20054;-72
2021/12/21 00:09:05;;;;;;;0.82;0.60;;;;;;;7.08;100.00;101209.47;4974738;28;20055;-71
2021/12/21 00:11:34;;;;;;;2.70;0.88;;;;;;;7.07;100.00;101214.53;4968749;28;20417;-71
2021/12/21 00:14:17;;;;;;;0.90;0.63;;;;;;;7.08;100.00;101221.47;4974637;28;20050;-71
2021/12/21 00:22:49;;;;;;;1.10;0.82;;;;;;;7.01;100.00;101227.09;4956739;28;20155;-70
2021/12/21 00:25:15;;;;;;;3.95;0.68;;;;;;;6.90;100.00;101230.00;4974226;28;20073;-71
2021/12/21 00:27:45;;;;;;;1.55;1.00;;;;;;;6.84;100.00;101227.09;4975164;28;20054;-70
2021/12/21 00:30:14;;;;;;;0.52;0.52;;;;;;;6.80;100.00;101227.75;4975635;28;20463;-72
2021/12/21 00:32:43;;;;;;;1.90;0.95;;;;;;;6.72;100.00;101235.06;4975403;28;20140;-70
2021/12/21 00:35:12;;;;;;;2.35;1.00;;;;;;;6.73;100.00;101243.66;4976134;28;20552;-70
2021/12/21 00:37:43;;;;;;;1.42;0.88;;;;;;;6.71;100.00;101247.84;4974359;28;20405;-70
2021/12/21 00:40:13;;;;;;;1.98;1.10;;;;;;;6.73;100.00;101246.22;4974907;28;20053;-70
2021/12/21 00:42:41;;;;;;;1.80;1.10;;;;;;;6.75;100.00;101248.88;4974040;28;20047;-70
2021/12/21 00:45:10;;;;;;;0.65;0.60;;;;;;;6.78;100.00;101256.75;4974012;28;20078;-69
2021/12/21 00:47:41;;;;;;;1.52;1.13;;;;;;;6.78;100.00;101257.66;4973906;28;20047;-71
2021/12/21 00:50:16;;;;;;;1.58;1.10;;;;;;;6.81;100.00;101256.94;4974397;28;20042;-70
2021/12/21 00:52:48;;;;;;;2.85;1.25;;;;;;;6.84;100.00;101264.81;4979599;28;20133;-69
2021/12/21 00:55:31;;;;;;;2.45;1.42;;;;;;;6.85;100.00;101269.13;4980539;28;20055;-70
2021/12/21 00:58:00;;;;;;;1.67;1.10;;;;;;;6.89;100.00;101265.94;4973692;28;20061;-70
2021/12/21 01:00:29;;;;;;;2.38;1.50;;;;;;;6.89;100.00;101266.84;4973711;28;20140;-71
2021/12/21 01:03:04;;;;;;;2.08;1.77;;;;;;;6.91;100.00;101269.47;4973135;28;20567;-71
2021/12/21 01:05:40;;;;;;;2.10;1.48;;;;;;;6.90;100.00;101267.72;4973715;28;20059;-72
2021/12/21 01:08:15;;;;;;;2.83;1.45;;;;;;;6.92;100.00;101279.84;4974862;28;20070;-71
2021/12/21 01:13:48;;;;;;;2.08;1.35;;;;;;;6.95;100.00;101276.53;4937490;28;20130;-72
2021/12/21 01:16:26;;;;;;;2.95;1.42;;;;;;;6.95;100.00;101280.81;4973141;28;20046;-71
2021/12/21 01:19:05;;;;;;;3.65;1.65;;;;;;;6.95;100.00;101273.97;4973561;28;20126;-70
2021/12/21 01:21:38;;;;;;;3.63;1.60;;;;;;;6.96;100.00;101277.44;4973161;28;20055;-71
2021/12/21 01:24:33;;;;;;;4.32;2.05;;;;;;;6.93;100.00;101279.03;4973131;28;20133;-68
2021/12/21 01:27:16;;;;;;;4.32;1.75;;;;;;;6.97;100.00;101289.50;4972694;28;20089;-69
2021/12/21 01:29:53;;;;;;;;;;;;;;;6.99;100.00;101286.19;4973673;28;20412;-70
2021/12/21 01:32:33;;;;;;;3.22;1.63;;;;;;;7.00;100.00;101289.66;4972024;28;19926;-71
2021/12/21 01:35:09;;;;;;;4.10;1.73;;;;;;;7.01;100.00;101284.59;4973319;28;20047;-71
2021/12/21 01:37:48;;;;;;;1.75;1.35;;;;;;;7.01;100.00;101279.44;4973187;28;20069;-69
2021/12/21 01:40:36;;;;;;;5.55;1.67;;;;;;;7.02;100.00;101280.31;4966013;28;20135;-69
2021/12/21 01:51:20;;;;;;;3.40;1.95;;;;;;;7.01;100.00;101296.56;4973017;28;20477;-72
2021/12/21 01:53:51;;;;;;;2.60;1.80;;;;;;;7.01;100.00;101288.84;4972390;28;20050;-71
2021/12/21 01:56:22;;;;;;;3.03;1.77;;;;;;;7.01;100.00;101287.16;4972098;28;20047;-70
2021/12/21 01:58:51;;;;;;;2.40;1.60;;;;;;;7.02;100.00;101293.19;4973189;28;20051;-71
2021/12/21 02:01:23;;;;;;;3.03;1.50;;;;;;;7.01;100.00;101283.69;4974713;28;20054;-71
2021/12/21 02:03:51;;;;;;;4.65;1.88;;;;;;;7.00;100.00;101284.50;4972660;28;20082;-69
2021/12/21 02:06:23;;;;;;;3.10;1.95;;;;;;;7.00;100.00;101285.38;4972501;28;20454;-72
2021/12/21 02:08:52;;;;;;;4.00;2.00;;;;;;;7.01;100.00;101275.97;4980621;28;20538;-71
2021/12/21 02:11:23;;;;;;;2.92;1.80;;;;;;;7.01;100.00;101279.44;4967147;28;20051;-72
2021/12/21 02:13:52;;;;;;;3.72;2.03;;;;;;;7.00;100.00;101266.50;4973858;28;20109;-70
2021/12/21 02:16:26;;;;;;;3.53;1.83;;;;;;;6.98;100.00;101260.38;4973560;28;20090;-70
2021/12/21 02:19:09;;;;;;;2.72;1.73;;;;;;;6.99;100.00;101272.47;4962288;28;20417;-70
2021/12/21 02:21:45;;;;;;;3.00;1.85;;;;;;;6.97;100.00;101276.63;4972965;28;20057;-69
2021/12/21 02:24:14;;;;;;;2.67;1.90;;;;;;;6.96;100.00;101270.59;4973043;28;20055;-68
2021/12/21 02:26:50;;;;;;;2.67;1.58;;;;;;;6.93;100.00;101273.88;4972132;28;20102;-68
2021/12/21 02:29:25;;;;;;;3.20;1.50;;;;;;;6.97;100.00;101276.63;4972542;28;20118;-70
2021/12/21 02:31:54;;;;;;;3.60;2.28;;;;;;;6.96;100.00;101277.44;4971730;28;20051;-70
2021/12/21 02:34:24;;;;;;;3.38;2.13;;;;;;;6.95;100.00;101286.84;4972228;28;20051;-70
2021/12/21 02:36:57;;;;;;;3.40;1.98;;;;;;;6.95;100.00;101281.69;4972014;28;20047;-69
2021/12/21 02:39:28;;;;;;;3.70;2.22;;;;;;;6.94;100.00;101274.78;4972066;28;20050;-70
2021/12/21 02:41:56;;;;;;;4.30;2.65;;;;;;;6.93;100.00;101278.16;4971358;28;20046;-70
2021/12/21 02:44:25;;;;;;;5.75;2.75;;;;;;;6.92;100.00;101282.41;4972160;28;20054;-70
2021/12/21 02:46:54;;;;;;;4.25;2.53;;;;;;;6.92;100.00;101281.53;4971415;28;20047;-70
2021/12/21 02:49:22;;;;;;;5.60;2.78;;;;;;;6.91;100.00;101272.03;4971743;28;20062;-71
2021/12/21 02:51:51;;;;;;;6.10;3.10;;;;;;;6.88;100.00;101270.19;4971703;28;20129;-70
2021/12/21 02:54:22;;;;;;;5.00;2.30;;;;;;;6.93;100.00;101273.00;4971522;28;20417;-70
2021/12/21 02:56:51;;;;;;;6.03;3.10;;;;;;;6.90;100.00;101273.72;4972036;28;20043;-70
2021/12/21 02:59:19;;;;;;;5.13;2.80;;;;;;;6.92;100.00;101277.28;4971106;28;20101;-71
2021/12/21 03:01:48;;;;;;;5.03;2.92;;;;;;;6.92;100.00;101271.25;4971426;28;20086;-71
2021/12/21 03:04:17;;;;;;;5.80;3.17;;;;;;;6.92;100.00;101271.25;4971578;28;20109;-71
2021/12/21 03:07:47;;;;;;;4.95;2.85;;;;;;;6.90;100.00;101260.88;4973153;28;20086;-71
2021/12/21 03:10:22;;;;;;;4.60;2.65;;;;;;;6.91;100.00;101259.19;4971068;28;20528;-70
2021/12/21 03:15:36;;;;;;;5.97;3.03;;;;;;;6.89;100.00;101256.53;4948481;28;20050;-71
2021/12/21 03:18:05;;;;;;;6.10;3.38;;;;;;;6.89;100.00;101268.50;4971115;28;20039;-70
2021/12/21 03:20:34;;;;;;;5.60;3.45;;;;;;;6.90;100.00;101268.59;4971191;28;20054;-68
2021/12/21 03:23:02;;;;;;;7.03;3.90;;;;;;;6.89;100.00;101277.13;4971451;28;20085;-71
2021/12/21 03:25:32;;;;;;;6.80;3.78;;;;;;;6.90;100.00;101273.72;4971151;28;20126;-71
2021/12/21 03:28:01;;;;;;;5.60;3.60;;;;;;;6.89;100.00;101274.56;4971475;28;20051;-71
2021/12/21 03:30:29;;;;;;;5.40;2.95;;;;;;;6.92;100.00;101272.13;4971429;28;20055;-71
2021/12/21 03:32:58;;;;;;;6.45;3.28;;;;;;;6.92;100.00;101272.13;4970760;28;20101;-71
2021/12/21 03:35:26;;;;;;;5.40;3.25;;;;;;;6.95;100.00;101268.84;4971599;28;20097;-70
2021/12/21 03:37:55;;;;;;;5.25;3.13;;;;;;;6.97;100.00;101267.22;4971411;28;20513;-70
2021/12/21 03:40:24;;;;;;;7.70;3.63;;;;;;;6.98;100.00;101260.38;4971739;28;20051;-70
2021/12/21 03:42:54;;;;;;;6.82;3.58;;;;;;;6.98;100.00;101265.53;4971431;28;20114;-70
2021/12/21 03:45:22;;;;;;;7.18;3.67;;;;;;;7.02;100.00;101273.50;4972683;28;20055;-70
2021/12/21 03:47:51;;;;;;;6.45;3.58;;;;;;;7.04;100.00;101277.03;4971888;28;20097;-70
2021/12/21 03:50:21;;;;;;;7.93;3.47;;;;;;;7.07;100.00;101272.03;4971613;28;20077;-70
2021/12/21 03:52:50;;;;;;;6.47;3.10;;;;;;;7.10;100.00;101276.44;4973019;28;20125;-70
2021/12/21 03:55:18;;;;;;;6.28;3.50;;;;;;;7.12;100.00;101275.75;4985428;28;20101;-70
2021/12/21 03:57:47;;;;;;;5.63;3.20;;;;;;;7.14;100.00;101288.69;4975745;28;20105;-69
2021/12/21 04:00:18;;;;;;;5.57;3.35;;;;;;;7.16;100.00;101292.22;4962690;28;20082;-69
2021/12/21 04:02:47;;;;;;;3.92;2.72;;;;;;;7.21;100.00;101297.59;4976363;28;20050;-69
2021/12/21 04:05:15;;;;;;;4.22;2.67;;;;;;;7.24;100.00;101306.38;4976474;28;20109;-70
2021/12/21 04:07:44;;;;;;;5.15;3.30;;;;;;;7.26;100.00;101309.91;4977375;28;20117;-69
2021/12/21 04:10:12;;;;;;;6.82;3.10;;;;;;;7.27;100.00;101314.25;4989413;28;20110;-69
2021/12/21 04:12:41;;;;;;;5.45;2.95;;;;;;;7.31;100.00;101317.88;4974744;28;20047;-69
2021/12/21 04:15:12;;;;;;;4.65;2.85;;;;;;;7.32;100.00;101320.50;4975265;28;20519;-71
2021/12/21 04:17:42;;;;;;;6.65;3.53;;;;;;;7.34;100.00;101316.31;4975069;28;20568;-70
2021/12/21 04:20:12;;;;;;;5.22;3.00;;;;;;;7.34;100.00;101307.72;4975070;28;20098;-70
2021/12/21 04:22:41;;;;;;;4.78;2.75;;;;;;;7.32;100.00;101307.63;4974910;28;20109;-69
2021/12/21 04:25:10;;;;;;;7.30;3.78;;;;;;;7.35;100.00;101301.75;4981307;28;20047;-70
2021/12/21 04:27:38;;;;;;;6.97;3.53;;;;;;;7.38;100.00;101295.91;4974858;28;20051;-70
2021/12/21 04:30:09;;;;;;;7.13;4.00;;;;;;;7.41;100.00;101301.19;4975070;28;20137;-71
2021/12/21 04:32:37;;;;;;;7.28;2.92;;;;;;;7.41;100.00;101304.66;4974490;28;20089;-68
2021/12/21 04:35:08;;;;;;;6.22;3.03;;;;;;;7.42;100.00;101302.97;4974895;28;20050;-70
2021/12/21 04:37:42;;;;;;;6.25;2.80;;;;;;;7.43;100.00;101307.31;4974377;28;20094;-70
2021/12/21 04:40:15;;;;;;;4.20;2.67;;;;;;;7.42;100.00;101302.97;4974852;28;20157;-73
2021/12/21 04:42:44;;;;;;;5.03;2.95;;;;;;;7.43;100.00;101307.31;4974097;28;20424;-72
2021/12/21 04:45:12;;;;;;;7.05;3.00;;;;;;;7.44;100.00;101309.94;4974422;28;20054;-72
2021/12/21 04:47:41;;;;;;;6.20;3.08;;;;;;;7.44;100.00;101304.81;4974500;28;20157;-73
2021/12/21 04:50:12;;;;;;;8.25;2.90;;;;;;;7.45;100.00;101311.75;4974507;28;20047;-72
2021/12/21 04:52:41;;;;;;;4.72;2.33;;;;;;;7.44;100.00;101309.94;4960615;28;20071;-73
2021/12/21 04:55:10;;;;;;;7.65;2.72;;;;;;;7.42;100.00;101311.59;4966622;28;20125;-72
2021/12/21 04:57:40;;;;;;;4.25;2.30;;;;;;;7.40;100.00;101312.28;4970248;28;20058;-72
2021/12/21 05:00:10;;;;;;;4.03;2.30;;;;;;;7.36;100.00;101302.66;4966831;28;20043;-72
2021/12/21 05:02:39;;;;;;;4.30;1.98;;;;;;;7.28;100.00;101305.75;4974035;28;20567;-72
2021/12/21 05:05:10;;;;;;;6.32;2.40;;;;;;;7.27;100.00;101310.78;4973568;28;20059;-72
2021/12/21 05:08:04;;;;;;;4.60;2.22;;;;;;;7.23;100.00;101311.44;4972437;28;20059;-72
2021/12/21 05:10:33;;;;;;;3.15;2.03;;;;;;;7.24;100.00;101310.63;4954383;29;20101;-72
2021/12/21 05:13:02;;;;;;;3.45;1.73;;;;;;;7.20;100.00;101307.03;4958324;28;20055;-72
2021/12/21 05:15:30;;;;;;;2.35;1.48;;;;;;;7.19;100.00;101302.66;4954476;29;20051;-73
2021/12/21 05:17:59;;;;;;;1.92;1.33;;;;;;;7.17;100.00;101299.16;4942648;29;20048;-73
2021/12/21 05:20:29;;;;;;;4.65;1.65;;;;;;;7.16;100.00;101299.94;4953864;28;20055;-72
2021/12/21 05:22:57;;;;;;;3.88;1.40;;;;;;;7.14;100.00;101298.97;4964251;28;20073;-73
2021/12/21 05:25:26;;;;;;;2.95;1.42;;;;;;;7.15;100.00;101313.63;4957764;28;20505;-72
2021/12/21 05:27:54;;;;;;;2.50;1.48;;;;;;;7.13;100.00;101305.81;4954482;29;20058;-73
2021/12/21 05:30:23;;;;;;;2.40;1.60;;;;;;;7.11;100.00;101303.97;4954444;29;20055;-73
2021/12/21 05:32:52;;;;;;;4.97;2.15;;;;;;;7.10;100.00;101299.59;4947743;29;20044;-73
2021/12/21 05:35:22;;;;;;;3.50;1.98;;;;;;;7.08;100.00;101299.53;4947034;29;20059;-71
2021/12/21 05:37:55;;;;;;;3.42;1.73;;;;;;;7.06;100.00;101285.72;4935243;29;20564;-73
2021/12/21 05:40:30;;;;;;;5.93;2.13;;;;;;;7.06;100.00;101292.56;4934922;29;20072;-71
2021/12/21 05:42:59;;;;;;;3.80;1.70;;;;;;;7.04;100.00;101289.00;4952953;28;20059;-72
2021/12/21 05:45:28;;;;;;;3.03;1.52;;;;;;;6.98;100.00;101280.97;4943835;28;20448;-73
2021/12/21 05:47:56;;;;;;;3.63;1.75;;;;;;;6.99;100.00;101290.47;4962913;28;20493;-72
2021/12/21 05:50:25;;;;;;;3.40;1.67;;;;;;;6.97;100.00;101287.81;4940519;29;20107;-72
2021/12/21 05:52:55;;;;;;;2.97;1.60;;;;;;;6.97;100.00;101284.34;4953268;29;20159;-70
2021/12/21 05:55:24;;;;;;;3.40;1.90;;;;;;;6.89;100.00;101282.28;4953252;29;20047;-71
2021/12/21 05:57:53;;;;;;;3.08;1.92;;;;;;;6.80;100.00;101283.44;4953346;29;20050;-70
2021/12/21 06:00:25;;;;;;;3.95;1.95;;;;;;;6.64;100.00;101274.03;4953614;29;20413;-72
2021/12/21 06:02:54;;;;;;;4.60;2.30;;;;;;;6.56;100.00;101278.78;4934151;29;20078;-73
2021/12/21 06:05:23;;;;;;;4.38;2.50;;;;;;;6.46;100.00;101289.38;4945765;29;20098;-71
2021/12/21 06:07:53;;;;;;;4.25;2.50;;;;;;;6.40;100.00;101291.59;4951554;28;20048;-72
2021/12/21 06:10:28;;;;;;;4.40;2.50;;;;;;;6.41;100.00;101286.53;4944778;28;20114;-72
2021/12/21 06:13:18;;;;;;;4.88;2.60;;;;;;;6.38;100.00;101281.22;4952612;29;20079;-71
2021/12/21 06:15:57;;;;;;;4.72;2.33;;;;;;;6.39;100.00;101287.25;4946344;28;20054;-72
2021/12/21 06:26:41;;;;;;;3.92;2.33;;;;;;;6.48;100.00;101298.94;4940547;28;20058;-73
2021/12/21 06:29:11;;;;;;;4.97;2.50;;;;;;;6.50;100.00;101297.34;4964413;28;20551;-72
2021/12/21 06:31:41;;;;;;;4.45;2.15;;;;;;;6.49;100.00;101285.25;4972143;28;20055;-71
2021/12/21 06:34:10;;;;;;;3.25;2.15;;;;;;;6.54;100.00;101294.91;4963864;28;20470;-71
2021/12/21 06:36:39;;;;;;;23.77;8.82;;;;;;;6.54;100.00;101302.63;4972275;28;20523;-72
2021/12/21 06:39:08;;;;;;;5.35;2.67;;;;;;;6.50;100.00;101302.47;4971481;28;20118;-70
2021/12/21 06:41:37;;;;;;;5.18;2.20;;;;;;;6.44;100.00;101298.69;4963768;28;20188;-72
2021/12/21 06:44:09;;;;;;;4.43;2.03;;;;;;;6.45;100.00;101306.47;4965314;28;20519;-71
2021/12/21 06:46:53;;;;;;;3.60;2.50;;;;;;;6.45;100.00;101315.84;4952818;28;20413;-71
2021/12/21 06:52:10;;;;;;;6.78;2.45;;;;;;;6.39;100.00;101308.72;4971131;28;20066;-71
2021/12/21 06:54:38;;;;;;;2.38;2.08;;;;;;;6.37;100.00;101310.31;4963543;28;20165;-70
2021/12/21 06:57:07;;;;;;;5.13;2.45;;;;;;;6.36;100.00;101305.94;4953436;28;20050;-71
2021/12/21 06:59:38;;;;;;;4.03;2.40;;;;;;;6.36;100.00;101299.94;4971224;28;20548;-71
2021/12/21 07:02:08;;;;;;;4.88;2.25;;;;;;;6.34;100.00;101306.66;4958227;28;20052;-71
2021/12/21 07:04:37;;;;;;;4.60;2.50;;;;;;;6.31;100.00;101303.94;4958569;28;20058;-70
2021/12/21 07:07:07;;;;;;;6.50;2.35;;;;;;;6.31;100.00;101304.81;4959751;28;20409;-71
2021/12/21 07:09:40;;;;;;;4.18;2.10;;;;;;;6.30;100.00;101297.91;4970414;28;20516;-71
2021/12/21 07:12:34;;;;;;;3.97;2.15;;;;;;;6.29;100.00;101291.00;4968001;28;20596;-71
2021/12/21 07:18:08;;;;;;;3.67;1.83;;;;;;;6.24;100.00;101265.03;4972251;28;20061;-71
2021/12/21 07:20:37;;;;;;;4.65;2.20;;;;;;;6.22;100.00;101252.91;4972223;28;20651;-71
2021/12/21 07:23:06;;;;;;;6.32;2.30;;;;;;;6.17;100.00;101249.22;4971318;28;20141;-72
2021/12/21 07:25:35;;;;;;;2.88;1.65;;;;;;;6.15;100.00;101248.25;4974403;28;20055;-70
2021/12/21 07:28:03;;;;;;;4.03;1.70;;;;;;;6.10;100.00;101237.72;4981658;28;20051;-71
2021/12/21 07:30:33;;;;;;;3.28;1.67;;;;;;;6.04;100.00;101222.81;4974025;28;20122;-70
2021/12/21 07:33:02;;;;;;;3.25;1.83;;;;;;;5.98;100.00;101227.66;4975077;28;20564;-71
2021/12/21 07:35:30;;;;;;;2.47;1.42;;;;;;;5.91;100.00;101225.50;4975960;28;20542;-70
2021/12/21 07:38:00;;;;;;;1.45;0.85;;;;;;;5.85;100.00;101230.28;4974996;28;20142;-70
2021/12/21 07:40:28;;;;;;;3.03;1.55;;;;;;;5.75;100.00;101231.47;4975452;28;20481;-70
2021/12/21 07:42:57;;;;;;;3.05;1.70;;;;;;;5.70;100.00;101230.28;4974657;28;20456;-70
2021/12/21 07:45:25;;;;;;;4.95;1.75;;;;;;;5.65;100.00;101245.44;4975376;28;20106;-69
2021/12/21 07:47:56;;;;;;;4.00;1.85;;;;;;;5.62;100.00;101245.28;4974946;28;20500;-71
2021/12/21 07:50:25;;;;;;;2.63;1.33;;;;;;;5.60;100.00;101259.69;4975567;28;20062;-71
2021/12/21 07:52:55;;;;;;;5.95;1.98;;;;;;;5.59;100.00;101262.16;4975175;28;20050;-72
2021/12/21 07:55:24;;;;;;;3.40;1.65;;;;;;;5.57;100.00;101277.50;4975759;28;20105;-72
2021/12/21 07:57:53;;;;;;;4.47;1.90;;;;;;;5.59;100.00;101282.72;4987435;28;20054;-72
2021/12/21 08:00:23;;;;;;;3.20;1.88;;;;;;;5.59;100.00;101273.34;4975467;28;20110;-70
2021/12/21 08:02:53;;;;;;;3.80;1.95;;;;;;;5.60;100.00;101280.25;4960958;28;20074;-71
2021/12/21 08:05:24;;;;;;;4.15;1.73;;;;;;;5.62;100.00;101281.22;4974846;28;20420;-71
2021/12/21 08:07:57;;;;;;;2.28;1.15;;;;;;;5.63;100.00;101275.28;4977211;28;20063;-71
2021/12/21 08:10:30;;;;;;;3.03;1.60;;;;;;;5.66;100.00;101274.59;4974862;28;20133;-71
2021/12/21 08:12:59;;;;;;;1.90;1.30;;;;;;;5.69;100.00;101285.03;4966445;28;20054;-71
2021/12/21 08:15:27;;;;;;;2.33;1.23;;;;;;;5.72;100.00;101299.72;4960856;28;20106;-71
2021/12/21 08:17:56;;;;;;;2.40;1.40;;;;;;;5.71;100.00;101292.84;4974367;28;20046;-72
2021/12/21 08:20:27;;;;;;;3.22;1.77;;;;;;;5.76;100.00;101312.81;4974714;28;20059;-71
2021/12/21 08:22:56;;;;;;;2.17;1.42;;;;;;;5.79;100.00;101307.84;4974009;28;20202;-70
2021/12/21 08:25:26;;;;;;;4.00;1.50;;;;;;;5.79;100.00;101304.41;4974498;28;20078;-71
2021/12/21 08:27:54;;;;;;;2.83;1.65;;;;;;;5.75;100.00;101313.63;4974249;28;20055;-72
2021/12/21 08:30:23;;;;;;;3.15;1.20;;;;;;;5.77;100.00;101318.84;4973873;28;20047;-71
2021/12/21 08:32:52;;;;;;;2.97;1.30;;;;;;;5.78;100.00;101307.78;4973674;28;20559;-70
2021/12/21 08:35:21;;;;;;;2.75;1.55;;;;;;;5.83;100.00;101319.19;4974634;28;20059;-70
2021/12/21 08:37:52;;;;;;;3.00;1.60;;;;;;;5.82;100.00;101320.00;4973932;28;20043;-71
2021/12/21 08:40:21;;;;;;;2.20;1.30;;;;;;;5.79;100.00;101323.25;4974373;28;20135;-71
2021/12/21 08:42:51;;;;;;;2.53;1.40;;;;;;;5.77;100.00;101311.13;4973993;28;20078;-70
2021/12/21 08:45:22;;;;;;;3.38;1.50;;;;;;;5.77;100.00;101318.84;4974571;28;20047;-70
2021/12/21 08:47:55;;;;;;;2.30;1.10;;;;;;;5.79;100.00;101317.25;4974538;28;20046;-69
2021/12/21 08:50:24;;;;;;;2.45;1.45;;;;;;;5.78;100.00;101321.50;4974235;28;20090;-71
2021/12/21 08:52:54;;;;;;;3.20;1.90;;;;;;;5.76;100.00;101328.22;4974693;28;20060;-70
2021/12/21 08:55:23;;;;;;;1.90;1.42;;;;;;;5.75;100.00;101331.59;4974072;28;20058;-72
2021/12/21 08:57:51;;;;;;;1.95;1.38;;;;;;;5.74;100.00;101324.69;4973590;28;20047;-70
2021/12/21 09:00:20;;;;;;;2.95;1.50;;;;;;;5.75;100.00;101326.47;4974378;28;20046;-71
2021/12/21 09:02:50;;;;;;;2.63;1.60;;;;;;;5.78;100.00;101330.91;4973419;28;20070;-69
2021/12/21 09:05:24;;;;;;;2.97;1.30;;;;;;;5.81;100.00;101334.50;4974875;28;20050;-69
2021/12/21 09:07:55;;;;;;;3.00;1.67;;;;;;;5.86;100.00;101334.78;4977997;28;20062;-70
2021/12/21 09:10:25;;;;;;;3.10;1.50;;;;;;;5.88;100.00;101325.47;4974081;28;20117;-70
2021/12/21 09:12:53;;;;;;;3.47;1.52;;;;;;;5.86;100.00;101329.63;4973070;28;20051;-71
2021/12/21 09:15:23;;;;;;;3.22;1.77;;;;;;;5.88;100.00;101338.31;4974022;28;20111;-70
2021/12/21 09:17:52;;;;;;;2.88;1.52;;;;;;;5.91;100.00;101328.25;4973803;28;20086;-70
2021/12/21 09:20:23;;;;;;;2.15;1.42;;;;;;;5.92;100.00;101324.00;4974265;28;20444;-70
2021/12/21 09:22:54;;;;;;;3.08;1.83;;;;;;;5.92;100.00;101319.72;4974052;28;20148;-70
2021/12/21 09:25:23;;;;;;;5.45;1.92;;;;;;;5.94;100.00;101309.56;4975308;28;20078;-70
2021/12/21 09:27:52;;;;;;;2.75;1.42;;;;;;;5.94;100.00;101304.41;4974845;28;20125;-70
2021/12/21 09:30:22;;;;;;;1.77;1.45;;;;;;;5.95;100.00;101304.50;4973850;28;20133;-70
2021/12/21 09:32:52;;;;;;;2.70;1.50;;;;;;;5.96;100.00;101308.88;4960269;28;20054;-70
2021/12/21 09:35:21;;;;;;;2.75;1.70;;;;;;;5.95;100.00;101309.66;4973784;28;20137;-70
2021/12/21 09:37:50;;;;;;;2.50;1.30;;;;;;;5.94;100.00;101313.03;4973061;28;20050;-70
2021/12/21 09:40:23;;;;;;;2.72;1.40;;;;;;;5.95;100.00;101311.34;4973252;28;20111;-69
2021/12/21 09:42:52;;;;;;;2.95;1.20;;;;;;;5.94;100.00;101313.03;4972762;28;20098;-71
2021/12/21 09:45:21;;;;;;;2.75;1.30;;;;;;;5.93;100.00;101305.19;4972990;28;20050;-69
2021/12/21 09:47:50;;;;;;;3.00;1.30;;;;;;;5.92;100.00;101312.03;4973073;28;20097;-70
2021/12/21 09:50:21;;;;;;;2.70;1.45;;;;;;;5.92;100.00;101319.72;4973067;28;20485;-70
2021/12/21 09:52:53;;;;;;;2.38;1.02;;;;;;;5.94;100.00;101325.88;4971189;28;20134;-71
2021/12/21 09:55:23;;;;;;;2.53;1.48;;;;;;;5.95;100.00;101340.47;4973052;28;20047;-69
2021/12/21 09:57:53;;;;;;;2.03;1.13;;;;;;;5.96;100.00;101336.25;4972557;28;20078;-70
2021/12/21 10:00:27;;;;;;;2.00;1.20;;;;;;;5.94;100.00;101331.00;4972777;28;20075;-71
2021/12/21 10:03:03;;;;;;;2.65;1.58;;;;;;;5.93;100.00;101331.75;4972138;28;20531;-70
2021/12/21 10:05:33;;;;;;;2.20;1.17;;;;;;;5.95;100.00;101339.59;4973058;28;20078;-70
2021/12/21 10:08:04;;;;;;;2.80;1.27;;;;;;;5.94;100.00;101348.09;4973552;28;20140;-70
2021/12/21 10:10:39;;;;;;;2.28;1.33;;;;;;;5.96;100.00;101349.09;4972959;28;20105;-71
2021/12/21 10:13:13;;;;;;;2.83;1.27;;;;;;;5.94;100.00;101359.25;4971793;28;20142;-71
2021/12/21 10:15:44;;;;;;;3.00;1.33;;;;;;;5.94;100.00;101363.50;4972451;28;20043;-71
2021/12/21 10:18:13;;;;;;;1.77;0.90;;;;;;;5.93;100.00;101378.00;4972876;28;20050;-71
2021/12/21 10:20:44;;;;;;;1.98;1.30;;;;;;;5.95;100.00;101381.56;4980963;28;20058;-70
2021/12/21 10:23:15;;;;;;;1.85;1.23;;;;;;;5.94;100.00;101384.03;4964497;28;20043;-71
2021/12/21 10:25:49;;;;;;;2.08;1.00;;;;;;;5.95;100.00;101371.28;4972931;28;20118;-70
2021/12/21 10:28:29;;;;;;;2.25;1.05;;;;;;;5.96;100.00;101365.38;4972407;28;20391;-71
2021/12/21 10:30:58;;;;;;;1.55;0.80;;;;;;;5.96;100.00;101355.09;4972571;28;20053;-71
2021/12/21 10:33:28;;;;;;;2.75;1.40;;;;;;;5.97;100.00;101354.28;4971598;28;20050;-70
2021/12/21 10:35:58;;;;;;;2.80;1.42;;;;;;;6.00;100.00;101357.06;4973804;28;20047;-71
2021/12/21 10:38:29;;;;;;;1.50;1.17;;;;;;;6.02;100.00;101368.28;4971866;28;20191;-70
2021/12/21 10:41:01;;;;;;;2.90;1.35;;;;;;;6.03;100.00;101374.34;4968357;28;20134;-71
2021/12/21 10:43:30;;;;;;;3.13;1.27;;;;;;;6.01;100.00;101381.06;4971655;28;20102;-70
2021/12/21 10:45:59;;;;;;;4.00;1.30;;;;;;;5.99;100.00;101383.53;4971976;28;20292;-70
2021/12/21 10:48:29;;;;;;;1.13;0.90;;;;;;;5.96;100.00;101403.91;4971854;28;20086;-70
2021/12/21 10:50:58;;;;;;;1.30;0.80;;;;;;;5.90;100.00;101408.66;4972223;28;20050;-72
2021/12/21 10:53:28;;;;;;;2.05;1.15;;;;;;;5.88;100.00;101421.38;4971148;28;20090;-71
2021/12/21 10:56:07;;;;;;;1.08;0.85;;;;;;;5.86;100.00;101419.53;4972261;28;20090;-71
2021/12/21 10:58:40;;;;;;;3.03;1.30;;;;;;;5.86;100.00;101427.22;4971647;28;20054;-70
2021/12/21 11:01:12;;;;;;;1.38;0.85;;;;;;;5.82;100.00;101421.06;4971764;28;20059;-70
2021/12/21 11:03:46;;;;;;;1.70;1.00;;;;;;;5.79;100.00;101409.69;4976955;28;20042;-70
2021/12/21 11:06:17;;;;;;;1.38;0.80;;;;;;;5.74;100.00;101396.59;4975306;28;20050;-70
2021/12/21 11:08:47;;;;;;;1.75;0.95;;;;;;;5.71;100.00;101403.25;4974977;28;20086;-71
2021/12/21 11:11:29;;;;;;;1.10;0.77;;;;;;;5.64;100.00;101400.28;4952659;28;20497;-71
2021/12/21 11:14:08;;;;;;;1.42;0.90;;;;;;;5.61;100.00;101389.84;4944355;28;20050;-71
2021/12/21 11:16:44;;;;;;;1.77;0.80;;;;;;;5.57;100.00;101382.75;4959302;28;20121;-70
2021/12/21 11:19:14;;;;;;;1.15;0.70;;;;;;;5.51;100.00;101379.81;4958720;28;20138;-71
2021/12/21 11:21:44;;;;;;;1.25;0.80;;;;;;;5.47;100.00;101390.69;4966036;28;20579;-70
2021/12/21 11:24:14;;;;;;;1.10;0.70;;;;;;;5.36;100.00;101401.97;4953297;29;20134;-72
2021/12/21 11:26:46;;;;;;;2.60;0.75;;;;;;;5.32;100.00;101390.66;4953863;29;20082;-71
2021/12/21 11:29:16;;;;;;;0.77;0.60;;;;;;;5.30;100.00;101387.13;4953542;29;20606;-71
2021/12/21 11:31:47;;;;;;;1.25;0.93;;;;;;;5.23;100.00;101379.84;4952878;28;20134;-71
2021/12/21 11:34:20;;;;;;;0.68;0.60;;;;;;;5.19;100.00;101383.88;4964470;28;20078;-71
2021/12/21 11:39:48;;;;;;;1.58;0.50;;;;;;;5.10;100.00;101360.22;4952207;28;20694;-72
2021/12/21 11:42:32;;;;;;;0.50;0.40;;;;;;;5.10;100.00;101359.34;4952227;29;20055;-71
2021/12/21 11:45:08;;;;;;;0.65;0.50;;;;;;;5.06;100.00;101372.78;4952237;28;20090;-70
2021/12/21 11:47:42;;;;;;;1.35;0.60;;;;;;;5.03;100.00;101376.03;4952280;28;20390;-71
2021/12/21 11:50:13;;;;;;;2.45;0.60;;;;;;;4.99;100.00;101389.47;4952394;28;20051;-70
2021/12/21 11:52:46;;;;;;;0.85;0.70;;;;;;;4.91;100.00;101395.81;4951600;29;20557;-70
2021/12/21 11:55:16;;;;;;;0.90;0.60;;;;;;;4.88;100.00;101396.50;4951916;29;20365;-70
2021/12/21 11:57:48;;;;;;;1.33;0.70;;;;;;;4.86;100.00;101392.06;4951663;29;20047;-70
2021/12/21 12:00:20;;;;;;;0.73;0.70;;;;;;;4.77;100.00;101388.13;4951938;28;20047;-70
2021/12/21 12:02:51;;;;;;;1.10;0.60;;;;;;;4.71;100.00;101395.44;4951492;29;20497;-70
2021/12/21 12:05:23;;;;;;;0.70;0.55;;;;;;;4.69;100.00;101398.69;4952006;29;20047;-70
2021/12/21 12:08:07;;;;;;;1.33;0.60;;;;;;;4.67;100.00;101396.03;4959255;28;20101;-71
2021/12/21 12:10:38;;;;;;;1.25;0.57;;;;;;;4.65;100.00;101391.59;4957950;28;20070;-71
2021/12/21 12:13:15;;;;;;;0.45;0.40;;;;;;;4.60;100.00;101396.41;4964567;28;20130;-70
2021/12/21 12:15:48;;;;;;;0.52;0.50;;;;;;;4.54;100.00;101396.06;4953633;28;20118;-71
2021/12/21 12:18:24;;;;;;;1.23;0.80;;;;;;;4.51;100.00;101401.88;4955072;29;20286;-71
2021/12/21 12:20:53;;;;;;;1.17;0.90;;;;;;;4.48;100.00;101400.78;4959859;28;20425;-71